sensor_id;sensor_type;location;lat;lon;timestamp;P1;durP1;ratioP1;P2;durP2;ratioP2
24751;SDS011;27246;52.376;4.628;2023-07-16T00:02:37;11.43;;;4.82;;
24751;SDS011;27246;52.376;4.628;2023-07-16T00:07:39;13.05;;;5.38;;
24751;SDS011;27246;52.376;4.628;2023-07-16T00:12:41;11.93;;;4.05;;
24751;SDS011;27246;52.376;4.628;2023-07-16T00:17:42;10.60;;;4.57;;
24751;SDS011;27246;52.376;4.628;2023-07-16T00:22:44;12.50;;;4.70;;
24751;SDS011;27246;52.376;4.628;2023-07-16T00:27:46;10.60;;;5.05;;
24751;SDS011;27246;52.376;4.628;2023-07-16T00:32:49;9.15;;;5.10;;
24751;SDS011;27246;52.376;4.628;2023-07-16T00:37:51;8.13;;;3.70;;
24751;SDS011;27246;52.376;4.628;2023-07-16T00:42:53;8.40;;;3.88;;
24751;SDS011;27246;52.376;4.628;2023-07-16T00:47:54;10.73;;;4.47;;
24751;SDS011;27246;52.376;4.628;2023-07-16T00:52:56;10.20;;;3.90;;
24751;SDS011;27246;52.376;4.628;2023-07-16T00:58:05;10.02;;;4.20;;
24751;SDS011;27246;52.376;4.628;2023-07-16T01:03:11;10.75;;;4.57;;
24751;SDS011;27246;52.376;4.628;2023-07-16T01:08:16;12.45;;;4.60;;
24751;SDS011;27246;52.376;4.628;2023-07-16T01:13:23;11.57;;;5.65;;
24751;SDS011;27246;52.376;4.628;2023-07-16T01:18:25;12.82;;;5.88;;
24751;SDS011;27246;52.376;4.628;2023-07-16T01:23:44;15.80;;;5.88;;
24751;SDS011;27246;52.376;4.628;2023-07-16T01:34:39;13.70;;;6.18;;
24751;SDS011;27246;52.376;4.628;2023-07-16T01:39:41;12.80;;;5.90;;
24751;SDS011;27246;52.376;4.628;2023-07-16T01:44:43;12.60;;;5.18;;
24751;SDS011;27246;52.376;4.628;2023-07-16T01:49:45;16.48;;;6.95;;
24751;SDS011;27246;52.376;4.628;2023-07-16T01:54:48;16.02;;;6.95;;
24751;SDS011;27246;52.376;4.628;2023-07-16T01:59:49;12.27;;;7.20;;
24751;SDS011;27246;52.376;4.628;2023-07-16T02:04:51;27.45;;;8.25;;
24751;SDS011;27246;52.376;4.628;2023-07-16T02:09:53;16.23;;;6.45;;
24751;SDS011;27246;52.376;4.628;2023-07-16T02:14:54;10.95;;;6.68;;
24751;SDS011;27246;52.376;4.628;2023-07-16T02:19:56;14.27;;;5.97;;
24751;SDS011;27246;52.376;4.628;2023-07-16T02:24:58;13.13;;;6.10;;
24751;SDS011;27246;52.376;4.628;2023-07-16T02:29:59;11.48;;;6.10;;
24751;SDS011;27246;52.376;4.628;2023-07-16T02:35:02;10.45;;;5.25;;
24751;SDS011;27246;52.376;4.628;2023-07-16T02:40:05;16.02;;;5.60;;
24751;SDS011;27246;52.376;4.628;2023-07-16T02:45:10;12.50;;;6.03;;
24751;SDS011;27246;52.376;4.628;2023-07-16T02:50:12;11.30;;;5.65;;
24751;SDS011;27246;52.376;4.628;2023-07-16T02:55:14;12.27;;;5.60;;
24751;SDS011;27246;52.376;4.628;2023-07-16T03:00:16;10.95;;;5.70;;
24751;SDS011;27246;52.376;4.628;2023-07-16T03:05:18;13.02;;;6.38;;
24751;SDS011;27246;52.376;4.628;2023-07-16T03:10:20;12.90;;;6.68;;
24751;SDS011;27246;52.376;4.628;2023-07-16T03:15:22;14.02;;;6.80;;
24751;SDS011;27246;52.376;4.628;2023-07-16T03:20:24;15.85;;;6.93;;
24751;SDS011;27246;52.376;4.628;2023-07-16T03:25:26;15.57;;;6.93;;
24751;SDS011;27246;52.376;4.628;2023-07-16T03:30:27;14.20;;;7.00;;
24751;SDS011;27246;52.376;4.628;2023-07-16T03:35:31;15.80;;;7.53;;
24751;SDS011;27246;52.376;4.628;2023-07-16T03:40:35;14.48;;;6.45;;
24751;SDS011;27246;52.376;4.628;2023-07-16T03:45:41;14.13;;;7.05;;
24751;SDS011;27246;52.376;4.628;2023-07-16T03:50:42;14.07;;;6.95;;
24751;SDS011;27246;52.376;4.628;2023-07-16T03:55:44;10.82;;;5.70;;
24751;SDS011;27246;52.376;4.628;2023-07-16T04:00:46;9.90;;;4.75;;
24751;SDS011;27246;52.376;4.628;2023-07-16T04:05:47;13.85;;;5.57;;
24751;SDS011;27246;52.376;4.628;2023-07-16T04:10:49;10.30;;;4.88;;
24751;SDS011;27246;52.376;4.628;2023-07-16T04:15:51;12.00;;;5.15;;
24751;SDS011;27246;52.376;4.628;2023-07-16T04:20:54;6.10;;;4.88;;
24751;SDS011;27246;52.376;4.628;2023-07-16T04:25:56;9.68;;;4.75;;
24751;SDS011;27246;52.376;4.628;2023-07-16T04:30:57;14.50;;;4.90;;
24751;SDS011;27246;52.376;4.628;2023-07-16T04:35:59;11.27;;;4.85;;
24751;SDS011;27246;52.376;4.628;2023-07-16T04:41:01;15.60;;;5.93;;
24751;SDS011;27246;52.376;4.628;2023-07-16T04:46:05;12.35;;;5.05;;
24751;SDS011;27246;52.376;4.628;2023-07-16T04:51:07;10.70;;;5.63;;
24751;SDS011;27246;52.376;4.628;2023-07-16T04:56:12;10.13;;;5.32;;
24751;SDS011;27246;52.376;4.628;2023-07-16T05:01:14;10.82;;;5.47;;
24751;SDS011;27246;52.376;4.628;2023-07-16T05:06:16;12.63;;;6.38;;
24751;SDS011;27246;52.376;4.628;2023-07-16T05:11:19;11.52;;;6.28;;
24751;SDS011;27246;52.376;4.628;2023-07-16T05:16:20;13.15;;;5.70;;
24751;SDS011;27246;52.376;4.628;2023-07-16T05:21:22;11.55;;;6.13;;
24751;SDS011;27246;52.376;4.628;2023-07-16T05:26:24;12.35;;;6.13;;
24751;SDS011;27246;52.376;4.628;2023-07-16T05:31:26;11.07;;;6.40;;
24751;SDS011;27246;52.376;4.628;2023-07-16T05:36:27;11.00;;;6.22;;
24751;SDS011;27246;52.376;4.628;2023-07-16T05:41:30;11.52;;;5.55;;
24751;SDS011;27246;52.376;4.628;2023-07-16T05:46:34;12.10;;;6.35;;
24751;SDS011;27246;52.376;4.628;2023-07-16T05:51:36;11.32;;;6.28;;
24751;SDS011;27246;52.376;4.628;2023-07-16T05:56:38;12.38;;;5.55;;
24751;SDS011;27246;52.376;4.628;2023-07-16T06:01:40;8.98;;;5.18;;
24751;SDS011;27246;52.376;4.628;2023-07-16T06:06:42;10.63;;;5.60;;
24751;SDS011;27246;52.376;4.628;2023-07-16T06:11:45;12.27;;;5.97;;
24751;SDS011;27246;52.376;4.628;2023-07-16T06:16:48;9.98;;;5.40;;
24751;SDS011;27246;52.376;4.628;2023-07-16T06:21:50;15.40;;;5.90;;
24751;SDS011;27246;52.376;4.628;2023-07-16T06:26:52;10.98;;;5.43;;
24751;SDS011;27246;52.376;4.628;2023-07-16T06:31:55;10.50;;;5.22;;
24751;SDS011;27246;52.376;4.628;2023-07-16T06:36:58;8.05;;;4.93;;
24751;SDS011;27246;52.376;4.628;2023-07-16T06:42:00;6.55;;;5.07;;
24751;SDS011;27246;52.376;4.628;2023-07-16T06:47:02;12.50;;;5.47;;
24751;SDS011;27246;52.376;4.628;2023-07-16T06:52:04;10.32;;;5.47;;
24751;SDS011;27246;52.376;4.628;2023-07-16T06:57:07;9.32;;;5.35;;
24751;SDS011;27246;52.376;4.628;2023-07-16T07:02:09;9.48;;;4.85;;
24751;SDS011;27246;52.376;4.628;2023-07-16T07:07:11;11.73;;;5.07;;
24751;SDS011;27246;52.376;4.628;2023-07-16T07:12:13;11.13;;;5.10;;
24751;SDS011;27246;52.376;4.628;2023-07-16T07:17:14;12.27;;;4.78;;
24751;SDS011;27246;52.376;4.628;2023-07-16T07:22:22;14.35;;;6.20;;
24751;SDS011;27246;52.376;4.628;2023-07-16T07:27:24;13.18;;;5.68;;
24751;SDS011;27246;52.376;4.628;2023-07-16T07:32:28;10.02;;;4.82;;
24751;SDS011;27246;52.376;4.628;2023-07-16T07:37:30;15.45;;;6.70;;
24751;SDS011;27246;52.376;4.628;2023-07-16T07:42:32;12.82;;;6.43;;
24751;SDS011;27246;52.376;4.628;2023-07-16T07:47:34;14.77;;;6.00;;
24751;SDS011;27246;52.376;4.628;2023-07-16T07:52:39;15.68;;;6.65;;
24751;SDS011;27246;52.376;4.628;2023-07-16T07:57:40;15.25;;;7.25;;
24751;SDS011;27246;52.376;4.628;2023-07-16T08:02:42;10.48;;;5.47;;
24751;SDS011;27246;52.376;4.628;2023-07-16T08:07:44;14.10;;;6.22;;
24751;SDS011;27246;52.376;4.628;2023-07-16T08:12:46;11.90;;;5.88;;
24751;SDS011;27246;52.376;4.628;2023-07-16T08:17:47;11.45;;;5.93;;
24751;SDS011;27246;52.376;4.628;2023-07-16T08:22:49;15.75;;;5.18;;
24751;SDS011;27246;52.376;4.628;2023-07-16T08:27:51;11.85;;;5.63;;
24751;SDS011;27246;52.376;4.628;2023-07-16T08:32:53;14.27;;;5.72;;
24751;SDS011;27246;52.376;4.628;2023-07-16T08:37:55;10.48;;;4.57;;
24751;SDS011;27246;52.376;4.628;2023-07-16T08:42:57;11.85;;;5.35;;
24751;SDS011;27246;52.376;4.628;2023-07-16T08:47:59;11.20;;;4.45;;
24751;SDS011;27246;52.376;4.628;2023-07-16T08:53:01;9.63;;;4.57;;
24751;SDS011;27246;52.376;4.628;2023-07-16T08:58:04;11.02;;;5.13;;
24751;SDS011;27246;52.376;4.628;2023-07-16T09:03:07;14.18;;;4.95;;
24751;SDS011;27246;52.376;4.628;2023-07-16T09:08:09;12.95;;;5.03;;
24751;SDS011;27246;52.376;4.628;2023-07-16T09:13:10;14.98;;;5.75;;
24751;SDS011;27246;52.376;4.628;2023-07-16T09:18:12;15.80;;;5.90;;
24751;SDS011;27246;52.376;4.628;2023-07-16T09:23:23;13.02;;;5.45;;
24751;SDS011;27246;52.376;4.628;2023-07-16T09:28:30;14.10;;;5.60;;
24751;SDS011;27246;52.376;4.628;2023-07-16T09:33:33;13.50;;;5.18;;
24751;SDS011;27246;52.376;4.628;2023-07-16T09:38:38;14.98;;;5.38;;
24751;SDS011;27246;52.376;4.628;2023-07-16T09:43:41;32.30;;;5.57;;
24751;SDS011;27246;52.376;4.628;2023-07-16T09:48:44;23.58;;;5.25;;
24751;SDS011;27246;52.376;4.628;2023-07-16T09:53:46;13.75;;;4.47;;
24751;SDS011;27246;52.376;4.628;2023-07-16T09:58:48;13.18;;;4.20;;
24751;SDS011;27246;52.376;4.628;2023-07-16T10:03:55;22.50;;;5.35;;
24751;SDS011;27246;52.376;4.628;2023-07-16T10:08:56;11.65;;;4.15;;
24751;SDS011;27246;52.376;4.628;2023-07-16T10:13:58;74.68;;;10.35;;
24751;SDS011;27246;52.376;4.628;2023-07-16T10:19:00;19.98;;;4.30;;
24751;SDS011;27246;52.376;4.628;2023-07-16T10:24:16;9.50;;;3.25;;
24751;SDS011;27246;52.376;4.628;2023-07-16T10:29:20;60.90;;;8.25;;
24751;SDS011;27246;52.376;4.628;2023-07-16T10:34:22;26.27;;;4.65;;
24751;SDS011;27246;52.376;4.628;2023-07-16T10:39:24;10.57;;;3.58;;
24751;SDS011;27246;52.376;4.628;2023-07-16T10:44:27;15.48;;;4.10;;
24751;SDS011;27246;52.376;4.628;2023-07-16T10:49:28;13.50;;;3.85;;
24751;SDS011;27246;52.376;4.628;2023-07-16T10:54:30;13.77;;;2.85;;
24751;SDS011;27246;52.376;4.628;2023-07-16T10:59:32;47.25;;;6.70;;
24751;SDS011;27246;52.376;4.628;2023-07-16T11:04:34;10.88;;;4.03;;
24751;SDS011;27246;52.376;4.628;2023-07-16T11:09:44;11.82;;;2.97;;
24751;SDS011;27246;52.376;4.628;2023-07-16T11:14:52;17.70;;;3.72;;
24751;SDS011;27246;52.376;4.628;2023-07-16T11:19:55;17.15;;;3.92;;
24751;SDS011;27246;52.376;4.628;2023-07-16T11:24:56;11.48;;;3.17;;
24751;SDS011;27246;52.376;4.628;2023-07-16T11:29:59;28.42;;;5.72;;
24751;SDS011;27246;52.376;4.628;2023-07-16T11:35:02;18.50;;;3.53;;
24751;SDS011;27246;52.376;4.628;2023-07-16T11:40:06;5.63;;;2.65;;
24751;SDS011;27246;52.376;4.628;2023-07-16T11:45:19;11.55;;;2.10;;
24751;SDS011;27246;52.376;4.628;2023-07-16T11:50:28;12.23;;;2.25;;
24751;SDS011;27246;52.376;4.628;2023-07-16T11:55:30;39.38;;;6.57;;
24751;SDS011;27246;52.376;4.628;2023-07-16T12:00:32;38.50;;;5.07;;
24751;SDS011;27246;52.376;4.628;2023-07-16T12:05:34;46.47;;;4.93;;
24751;SDS011;27246;52.376;4.628;2023-07-16T12:10:53;22.25;;;3.00;;
24751;SDS011;27246;52.376;4.628;2023-07-16T12:15:55;35.47;;;5.30;;
24751;SDS011;27246;52.376;4.628;2023-07-16T12:20:58;36.95;;;5.18;;
24751;SDS011;27246;52.376;4.628;2023-07-16T12:26:00;9.85;;;2.03;;
24751;SDS011;27246;52.376;4.628;2023-07-16T12:31:02;127.05;;;14.75;;
24751;SDS011;27246;52.376;4.628;2023-07-16T12:36:04;38.20;;;6.00;;
24751;SDS011;27246;52.376;4.628;2023-07-16T12:41:06;8.15;;;1.73;;
24751;SDS011;27246;52.376;4.628;2023-07-16T12:46:08;18.83;;;2.50;;
24751;SDS011;27246;52.376;4.628;2023-07-16T12:51:10;20.52;;;3.45;;
24751;SDS011;27246;52.376;4.628;2023-07-16T12:56:12;9.77;;;2.92;;
24751;SDS011;27246;52.376;4.628;2023-07-16T13:01:14;31.30;;;4.30;;
24751;SDS011;27246;52.376;4.628;2023-07-16T13:06:16;9.98;;;2.38;;
24751;SDS011;27246;52.376;4.628;2023-07-16T13:11:18;35.20;;;6.32;;
24751;SDS011;27246;52.376;4.628;2023-07-16T13:16:20;13.70;;;2.42;;
24751;SDS011;27246;52.376;4.628;2023-07-16T13:21:22;11.20;;;2.33;;
24751;SDS011;27246;52.376;4.628;2023-07-16T13:26:23;12.90;;;3.05;;
24751;SDS011;27246;52.376;4.628;2023-07-16T13:31:26;13.98;;;3.42;;
24751;SDS011;27246;52.376;4.628;2023-07-16T13:36:30;14.90;;;2.78;;
24751;SDS011;27246;52.376;4.628;2023-07-16T13:41:31;10.55;;;2.78;;
24751;SDS011;27246;52.376;4.628;2023-07-16T13:46:35;15.63;;;2.67;;
24751;SDS011;27246;52.376;4.628;2023-07-16T13:51:39;18.65;;;4.10;;
24751;SDS011;27246;52.376;4.628;2023-07-16T13:56:41;14.68;;;2.80;;
24751;SDS011;27246;52.376;4.628;2023-07-16T14:01:43;9.18;;;3.20;;
24751;SDS011;27246;52.376;4.628;2023-07-16T14:06:45;10.05;;;2.58;;
24751;SDS011;27246;52.376;4.628;2023-07-16T14:11:47;12.82;;;2.95;;
24751;SDS011;27246;52.376;4.628;2023-07-16T14:16:49;9.02;;;2.15;;
24751;SDS011;27246;52.376;4.628;2023-07-16T14:21:51;14.82;;;3.58;;
24751;SDS011;27246;52.376;4.628;2023-07-16T14:26:53;11.20;;;3.38;;
24751;SDS011;27246;52.376;4.628;2023-07-16T14:31:55;11.85;;;2.85;;
24751;SDS011;27246;52.376;4.628;2023-07-16T14:36:57;10.55;;;2.78;;
24751;SDS011;27246;52.376;4.628;2023-07-16T14:41:58;10.65;;;2.58;;
24751;SDS011;27246;52.376;4.628;2023-07-16T14:47:05;15.07;;;2.63;;
24751;SDS011;27246;52.376;4.628;2023-07-16T14:52:06;11.57;;;2.80;;
24751;SDS011;27246;52.376;4.628;2023-07-16T14:57:09;64.00;;;8.13;;
24751;SDS011;27246;52.376;4.628;2023-07-16T15:02:10;11.15;;;3.13;;
24751;SDS011;27246;52.376;4.628;2023-07-16T15:07:12;16.48;;;3.15;;
24751;SDS011;27246;52.376;4.628;2023-07-16T15:12:14;12.85;;;3.22;;
24751;SDS011;27246;52.376;4.628;2023-07-16T15:17:16;15.43;;;3.10;;
24751;SDS011;27246;52.376;4.628;2023-07-16T15:22:18;15.43;;;3.40;;
24751;SDS011;27246;52.376;4.628;2023-07-16T15:27:21;14.38;;;3.08;;
24751;SDS011;27246;52.376;4.628;2023-07-16T15:32:23;10.48;;;2.65;;
24751;SDS011;27246;52.376;4.628;2023-07-16T15:37:25;15.00;;;3.22;;
24751;SDS011;27246;52.376;4.628;2023-07-16T15:42:28;10.70;;;3.97;;
24751;SDS011;27246;52.376;4.628;2023-07-16T15:47:30;12.68;;;2.55;;
24751;SDS011;27246;52.376;4.628;2023-07-16T15:52:32;8.40;;;2.65;;
24751;SDS011;27246;52.376;4.628;2023-07-16T15:57:35;13.18;;;3.58;;
24751;SDS011;27246;52.376;4.628;2023-07-16T16:02:45;10.32;;;3.67;;
24751;SDS011;27246;52.376;4.628;2023-07-16T16:13:14;9.68;;;2.17;;
24751;SDS011;27246;52.376;4.628;2023-07-16T16:18:16;6.82;;;2.03;;
24751;SDS011;27246;52.376;4.628;2023-07-16T16:23:19;12.77;;;2.80;;
24751;SDS011;27246;52.376;4.628;2023-07-16T16:28:21;9.68;;;3.63;;
24751;SDS011;27246;52.376;4.628;2023-07-16T16:33:24;10.32;;;2.88;;
24751;SDS011;27246;52.376;4.628;2023-07-16T16:38:26;9.90;;;2.53;;
24751;SDS011;27246;52.376;4.628;2023-07-16T16:43:27;11.52;;;3.20;;
24751;SDS011;27246;52.376;4.628;2023-07-16T16:48:29;8.77;;;3.33;;
24751;SDS011;27246;52.376;4.628;2023-07-16T16:53:32;8.57;;;3.13;;
24751;SDS011;27246;52.376;4.628;2023-07-16T16:58:36;9.95;;;2.53;;
24751;SDS011;27246;52.376;4.628;2023-07-16T17:03:38;22.33;;;3.40;;
24751;SDS011;27246;52.376;4.628;2023-07-16T17:08:39;10.68;;;2.67;;
24751;SDS011;27246;52.376;4.628;2023-07-16T17:13:42;13.27;;;2.10;;
24751;SDS011;27246;52.376;4.628;2023-07-16T17:18:44;9.52;;;1.58;;
24751;SDS011;27246;52.376;4.628;2023-07-16T17:23:45;7.85;;;1.85;;
24751;SDS011;27246;52.376;4.628;2023-07-16T17:28:52;5.20;;;1.80;;
24751;SDS011;27246;52.376;4.628;2023-07-16T17:33:54;6.63;;;2.00;;
24751;SDS011;27246;52.376;4.628;2023-07-16T17:38:55;5.25;;;1.58;;
24751;SDS011;27246;52.376;4.628;2023-07-16T17:43:57;5.00;;;1.80;;
24751;SDS011;27246;52.376;4.628;2023-07-16T17:48:59;7.80;;;1.75;;
24751;SDS011;27246;52.376;4.628;2023-07-16T17:54:01;8.38;;;2.22;;
24751;SDS011;27246;52.376;4.628;2023-07-16T17:59:05;10.70;;;1.75;;
24751;SDS011;27246;52.376;4.628;2023-07-16T18:04:12;7.50;;;2.22;;
24751;SDS011;27246;52.376;4.628;2023-07-16T18:09:15;6.72;;;1.83;;
24751;SDS011;27246;52.376;4.628;2023-07-16T18:14:16;10.35;;;2.28;;
24751;SDS011;27246;52.376;4.628;2023-07-16T18:19:18;6.13;;;1.65;;
24751;SDS011;27246;52.376;4.628;2023-07-16T18:24:21;11.90;;;3.05;;
24751;SDS011;27246;52.376;4.628;2023-07-16T18:29:22;7.20;;;2.47;;
24751;SDS011;27246;52.376;4.628;2023-07-16T18:34:26;8.75;;;2.22;;
24751;SDS011;27246;52.376;4.628;2023-07-16T18:39:28;10.10;;;2.67;;
24751;SDS011;27246;52.376;4.628;2023-07-16T18:44:30;10.65;;;2.17;;
24751;SDS011;27246;52.376;4.628;2023-07-16T18:49:38;7.27;;;2.83;;
24751;SDS011;27246;52.376;4.628;2023-07-16T18:54:41;5.97;;;2.28;;
24751;SDS011;27246;52.376;4.628;2023-07-16T18:59:43;10.77;;;2.63;;
24751;SDS011;27246;52.376;4.628;2023-07-16T19:04:45;8.45;;;2.20;;
24751;SDS011;27246;52.376;4.628;2023-07-16T19:09:47;5.47;;;2.42;;
24751;SDS011;27246;52.376;4.628;2023-07-16T19:14:48;8.82;;;1.77;;
24751;SDS011;27246;52.376;4.628;2023-07-16T19:19:50;9.60;;;2.30;;
24751;SDS011;27246;52.376;4.628;2023-07-16T19:24:52;7.97;;;2.45;;
24751;SDS011;27246;52.376;4.628;2023-07-16T19:29:54;5.78;;;2.25;;
24751;SDS011;27246;52.376;4.628;2023-07-16T19:34:56;12.95;;;2.20;;
24751;SDS011;27246;52.376;4.628;2023-07-16T19:39:58;10.18;;;1.90;;
24751;SDS011;27246;52.376;4.628;2023-07-16T19:45:05;9.68;;;2.63;;
24751;SDS011;27246;52.376;4.628;2023-07-16T19:50:07;8.85;;;2.35;;
24751;SDS011;27246;52.376;4.628;2023-07-16T19:55:09;7.40;;;1.85;;
24751;SDS011;27246;52.376;4.628;2023-07-16T20:00:11;9.07;;;2.65;;
24751;SDS011;27246;52.376;4.628;2023-07-16T20:05:14;6.65;;;2.28;;
24751;SDS011;27246;52.376;4.628;2023-07-16T20:10:18;9.98;;;2.42;;
24751;SDS011;27246;52.376;4.628;2023-07-16T20:15:20;8.85;;;2.45;;
24751;SDS011;27246;52.376;4.628;2023-07-16T20:20:22;11.57;;;2.17;;
24751;SDS011;27246;52.376;4.628;2023-07-16T20:25:24;10.00;;;2.05;;
24751;SDS011;27246;52.376;4.628;2023-07-16T20:30:25;9.23;;;2.42;;
24751;SDS011;27246;52.376;4.628;2023-07-16T20:35:28;12.95;;;2.88;;
24751;SDS011;27246;52.376;4.628;2023-07-16T20:40:33;10.57;;;2.40;;
24751;SDS011;27246;52.376;4.628;2023-07-16T20:45:36;9.18;;;2.50;;
24751;SDS011;27246;52.376;4.628;2023-07-16T20:50:46;12.55;;;2.30;;
24751;SDS011;27246;52.376;4.628;2023-07-16T20:55:48;8.45;;;2.15;;
24751;SDS011;27246;52.376;4.628;2023-07-16T21:00:49;7.95;;;1.83;;
24751;SDS011;27246;52.376;4.628;2023-07-16T21:05:51;9.00;;;1.95;;
24751;SDS011;27246;52.376;4.628;2023-07-16T21:10:53;8.13;;;2.75;;
24751;SDS011;27246;52.376;4.628;2023-07-16T21:15:54;9.18;;;1.98;;
24751;SDS011;27246;52.376;4.628;2023-07-16T21:20:56;5.85;;;1.95;;
24751;SDS011;27246;52.376;4.628;2023-07-16T21:25:58;7.75;;;1.80;;
24751;SDS011;27246;52.376;4.628;2023-07-16T21:30:59;6.78;;;2.00;;
24751;SDS011;27246;52.376;4.628;2023-07-16T21:36:04;9.75;;;2.35;;
24751;SDS011;27246;52.376;4.628;2023-07-16T21:41:06;9.65;;;2.35;;
24751;SDS011;27246;52.376;4.628;2023-07-16T21:46:08;7.75;;;2.28;;
24751;SDS011;27246;52.376;4.628;2023-07-16T21:51:10;8.95;;;2.42;;
24751;SDS011;27246;52.376;4.628;2023-07-16T21:56:13;7.57;;;1.75;;
24751;SDS011;27246;52.376;4.628;2023-07-16T22:01:15;9.05;;;2.13;;
24751;SDS011;27246;52.376;4.628;2023-07-16T22:06:17;9.43;;;2.33;;
24751;SDS011;27246;52.376;4.628;2023-07-16T22:11:19;8.23;;;3.03;;
24751;SDS011;27246;52.376;4.628;2023-07-16T22:16:21;4.72;;;2.00;;
24751;SDS011;27246;52.376;4.628;2023-07-16T22:21:24;5.85;;;1.90;;
24751;SDS011;27246;52.376;4.628;2023-07-16T22:26:27;5.20;;;2.08;;
24751;SDS011;27246;52.376;4.628;2023-07-16T22:31:28;8.63;;;2.50;;
24751;SDS011;27246;52.376;4.628;2023-07-16T22:36:30;7.00;;;2.22;;
24751;SDS011;27246;52.376;4.628;2023-07-16T22:41:32;7.53;;;2.45;;
24751;SDS011;27246;52.376;4.628;2023-07-16T22:46:36;6.47;;;2.72;;
24751;SDS011;27246;52.376;4.628;2023-07-16T22:51:38;11.70;;;2.80;;
24751;SDS011;27246;52.376;4.628;2023-07-16T22:56:39;5.63;;;2.13;;
24751;SDS011;27246;52.376;4.628;2023-07-16T23:01:41;11.95;;;2.97;;
24751;SDS011;27246;52.376;4.628;2023-07-16T23:06:44;14.18;;;2.88;;
24751;SDS011;27246;52.376;4.628;2023-07-16T23:11:46;8.25;;;2.80;;
24751;SDS011;27246;52.376;4.628;2023-07-16T23:16:47;9.77;;;2.35;;
24751;SDS011;27246;52.376;4.628;2023-07-16T23:21:49;8.38;;;2.35;;
24751;SDS011;27246;52.376;4.628;2023-07-16T23:26:51;8.65;;;2.55;;
24751;SDS011;27246;52.376;4.628;2023-07-16T23:31:52;8.82;;;2.78;;
24751;SDS011;27246;52.376;4.628;2023-07-16T23:36:54;7.00;;;2.20;;
24751;SDS011;27246;52.376;4.628;2023-07-16T23:41:56;8.30;;;2.33;;
24751;SDS011;27246;52.376;4.628;2023-07-16T23:46:58;8.20;;;2.10;;
24751;SDS011;27246;52.376;4.628;2023-07-16T23:52:00;9.57;;;2.70;;
24751;SDS011;27246;52.376;4.628;2023-07-16T23:57:02;7.35;;;2.75;;
